createdAt,value
2019-05-26T00:04:56.392Z,6.13
2019-05-26T00:09:58.410Z,4.93
2019-05-26T00:15:00.443Z,5.20
2019-05-26T00:20:03.109Z,5.07
2019-05-26T00:25:05.261Z,5.53
2019-05-26T00:30:08.116Z,5.67
2019-05-26T00:35:10.353Z,6.50
2019-05-26T00:40:12.376Z,7.10
2019-05-26T00:45:14.864Z,8.23
2019-05-26T00:50:17.466Z,7.47
2019-05-26T00:55:19.515Z,7.07
2019-05-26T01:00:37.984Z,7.17
2019-05-26T01:05:40.525Z,6.53
2019-05-26T01:10:42.582Z,6.53
2019-05-26T01:15:44.669Z,6.97
2019-05-26T01:20:48.424Z,6.93
2019-05-26T01:25:50.473Z,7.30
2019-05-26T01:30:52.577Z,7.20
2019-05-26T01:35:54.892Z,7.40
2019-05-26T01:40:56.991Z,8.90
2019-05-26T01:45:59.101Z,7.83
2019-05-26T01:51:01.214Z,6.80
2019-05-26T01:56:05.394Z,7.63
2019-05-26T02:01:07.481Z,8.20
2019-05-26T02:06:09.529Z,7.93
2019-05-26T02:11:11.599Z,8.43
2019-05-26T02:16:13.638Z,8.67
2019-05-26T02:21:15.771Z,8.40
2019-05-26T02:26:18.585Z,8.20
2019-05-26T02:31:21.036Z,7.97
2019-05-26T02:36:23.173Z,7.77
2019-05-26T02:41:25.311Z,8.57
2019-05-26T02:46:27.404Z,8.93
2019-05-26T02:51:29.505Z,8.47
2019-05-26T02:56:31.829Z,9.30
2019-05-26T03:01:34.327Z,9.07
2019-05-26T03:06:37.700Z,8.70
2019-05-26T03:11:41.948Z,8.73
2019-05-26T03:16:46.395Z,9.63
2019-05-26T03:21:52.592Z,9.70
2019-05-26T03:26:55.838Z,9.60
2019-05-26T03:31:57.945Z,9.07
2019-05-26T03:37:00.015Z,9.90
2019-05-26T03:42:02.160Z,9.70
2019-05-26T03:47:04.237Z,9.70
2019-05-26T03:52:06.307Z,9.57
2019-05-26T03:57:09.873Z,9.33
2019-05-26T04:02:13.754Z,10.27
2019-05-26T04:07:15.818Z,9.60
2019-05-26T04:12:17.837Z,11.67
2019-05-26T04:17:19.932Z,10.50
2019-05-26T04:22:22.010Z,10.20
2019-05-26T04:27:24.226Z,11.00
2019-05-26T04:32:26.285Z,9.70
2019-05-26T04:37:28.367Z,11.30
2019-05-26T04:42:30.417Z,10.93
2019-05-26T04:47:32.502Z,10.57
2019-05-26T04:52:34.557Z,10.57
2019-05-26T04:57:36.626Z,10.50
2019-05-26T05:02:38.695Z,10.53
2019-05-26T05:07:40.790Z,10.20
2019-05-26T05:12:42.884Z,8.77
2019-05-26T05:17:44.940Z,8.93
2019-05-26T05:22:47.005Z,8.23
2019-05-26T05:27:49.101Z,8.43
2019-05-26T05:32:51.169Z,9.40
2019-05-26T05:37:53.262Z,8.53
2019-05-26T05:42:55.315Z,7.67
2019-05-26T05:47:59.538Z,8.00
2019-05-26T05:53:01.598Z,7.00
2019-05-26T05:58:03.698Z,7.17
2019-05-26T06:03:05.751Z,7.25
2019-05-26T06:08:07.838Z,7.30
2019-05-26T06:13:09.897Z,6.15
2019-05-26T06:18:11.996Z,6.08
2019-05-26T06:23:14.159Z,6.65
2019-05-26T06:28:18.244Z,5.90
2019-05-26T06:33:20.301Z,5.85
2019-05-26T06:38:22.346Z,6.00
2019-05-26T06:43:24.431Z,5.45
2019-05-26T06:48:27.137Z,5.62
2019-05-26T06:53:29.622Z,5.03
2019-05-26T06:58:31.719Z,5.08
2019-05-26T07:03:33.809Z,5.55
2019-05-26T07:08:35.974Z,4.90
2019-05-26T07:13:38.139Z,5.28
2019-05-26T07:18:40.289Z,4.60
2019-05-26T07:23:42.385Z,4.55
2019-05-26T07:28:44.491Z,4.30
2019-05-26T07:33:46.570Z,4.20
2019-05-26T07:38:49.942Z,4.20
2019-05-26T07:43:53.861Z,4.45
2019-05-26T07:48:55.953Z,3.47
2019-05-26T07:53:58.036Z,3.70
2019-05-26T07:59:00.173Z,4.42
2019-05-26T08:04:02.231Z,3.37
2019-05-26T08:09:06.908Z,3.22
2019-05-26T08:14:08.885Z,2.60
2019-05-26T08:19:13.484Z,2.33
2019-05-26T08:24:25.061Z,2.10
2019-05-26T08:29:27.220Z,2.40
2019-05-26T08:34:29.399Z,2.15
2019-05-26T08:39:31.657Z,1.80
2019-05-26T08:44:33.795Z,2.10
2019-05-26T08:49:35.870Z,2.20
2019-05-26T08:54:37.903Z,2.30
2019-05-26T08:59:39.996Z,2.50
2019-05-26T09:04:42.097Z,2.30
2019-05-26T09:09:44.285Z,2.60
2019-05-26T09:14:46.425Z,2.60
2019-05-26T09:19:48.472Z,2.80
2019-05-26T09:24:50.652Z,3.22
2019-05-26T09:29:52.741Z,4.12
2019-05-26T09:34:54.791Z,4.12
2019-05-26T09:39:58.257Z,3.62
2019-05-26T09:45:00.409Z,3.47
2019-05-26T09:50:04.695Z,3.58
2019-05-26T09:55:09.819Z,4.90
2019-05-26T10:00:16.168Z,2.75
2019-05-26T10:05:18.255Z,2.98
2019-05-26T10:10:28.565Z,3.17
2019-05-26T10:15:40.040Z,3.05
2019-05-26T10:20:43.981Z,2.60
2019-05-26T10:26:05.573Z,2.10
2019-05-26T10:31:07.710Z,1.95
2019-05-26T10:36:09.733Z,2.35
2019-05-26T10:41:11.808Z,2.55
2019-05-26T10:46:13.903Z,2.58
2019-05-26T10:51:16.101Z,2.80
2019-05-26T10:56:18.300Z,2.60
2019-05-26T11:01:21.600Z,2.30
2019-05-26T11:06:23.905Z,1.90
2019-05-26T11:11:35.765Z,2.20
2019-05-26T11:16:43.185Z,1.90
2019-05-26T11:21:50.031Z,2.80
2019-05-26T11:26:52.929Z,2.52
2019-05-26T11:31:55.197Z,2.20
2019-05-26T11:37:00.475Z,1.72
2019-05-26T11:42:12.775Z,1.57
2019-05-26T11:47:06.774Z,1.27
2019-05-26T11:52:08.932Z,1.42
2019-05-26T11:57:11.101Z,1.90
2019-05-26T12:02:13.151Z,1.90
2019-05-26T12:07:15.309Z,1.60
2019-05-26T12:12:17.648Z,1.50
2019-05-26T12:17:19.944Z,1.42
2019-05-26T12:22:22.027Z,1.42
2019-05-26T12:27:24.118Z,1.35
2019-05-26T12:32:26.298Z,1.57
2019-05-26T12:37:28.577Z,1.30
2019-05-26T12:42:30.643Z,1.42
2019-05-26T12:47:32.707Z,1.10
2019-05-26T12:52:34.768Z,1.17
2019-05-26T12:57:36.875Z,1.20
2019-05-26T13:02:38.932Z,1.30
2019-05-26T13:07:41.019Z,1.30
2019-05-26T13:12:43.210Z,1.10
2019-05-26T13:17:45.278Z,1.37
2019-05-26T13:22:47.456Z,1.22
2019-05-26T13:27:49.545Z,1.25
2019-05-26T13:32:51.630Z,1.35
2019-05-26T13:37:53.694Z,1.42
2019-05-26T13:42:55.702Z,1.20
2019-05-26T13:47:57.778Z,0.95
2019-05-26T13:52:59.962Z,1.00
2019-05-26T13:58:02.013Z,1.27
2019-05-26T14:03:04.172Z,0.88
2019-05-26T14:08:06.218Z,1.05
2019-05-26T14:13:08.293Z,1.32
2019-05-26T14:18:10.559Z,1.65
2019-05-26T14:23:12.601Z,1.20
2019-05-26T14:28:14.701Z,1.02
2019-05-26T14:33:16.796Z,1.02
2019-05-26T14:38:18.899Z,1.07
2019-05-26T14:43:20.962Z,1.17
2019-05-26T14:48:23.038Z,1.00
2019-05-26T14:53:25.066Z,0.90
2019-05-26T14:58:27.000Z,0.90
2019-05-26T15:03:29.054Z,1.00
2019-05-26T15:08:31.192Z,0.90
2019-05-26T15:13:33.267Z,0.90
2019-05-26T15:18:35.340Z,0.90
2019-05-26T15:23:37.369Z,1.07
2019-05-26T15:28:39.481Z,1.00
2019-05-26T15:33:41.562Z,1.20
2019-05-26T15:38:43.618Z,0.90
2019-05-26T15:43:45.654Z,1.17
2019-05-26T15:48:47.721Z,0.60
2019-05-26T15:53:49.781Z,1.12
2019-05-26T15:58:51.812Z,1.32
2019-05-26T16:03:53.897Z,1.02
2019-05-26T16:08:55.963Z,3.05
2019-05-26T16:13:58.205Z,1.05
2019-05-26T16:19:00.309Z,1.10
2019-05-26T16:24:02.440Z,0.80
2019-05-26T16:29:04.826Z,0.80
2019-05-26T16:34:07.020Z,1.12
2019-05-26T16:39:09.160Z,1.05
2019-05-26T16:44:11.387Z,0.93
2019-05-26T16:49:13.450Z,1.00
2019-05-26T16:54:15.566Z,1.10
2019-05-26T16:59:17.619Z,1.32
2019-05-26T17:04:19.820Z,1.57
2019-05-26T17:09:22.048Z,1.60
2019-05-26T17:14:24.093Z,1.20
2019-05-26T17:19:26.191Z,1.25
2019-05-26T17:24:28.202Z,1.20
2019-05-26T17:29:30.272Z,1.02
2019-05-26T17:34:32.370Z,1.00
2019-05-26T17:39:35.693Z,1.10
2019-05-26T17:44:37.986Z,1.27
2019-05-26T17:49:40.054Z,1.40
2019-05-26T17:54:42.038Z,1.37
2019-05-26T17:59:44.124Z,1.50
2019-05-26T18:04:48.458Z,0.93
2019-05-26T18:09:52.767Z,0.98
2019-05-26T18:14:54.832Z,1.62
2019-05-26T18:19:58.047Z,1.20
2019-05-26T18:25:00.231Z,1.50
2019-05-26T18:30:02.670Z,1.90
2019-05-26T18:35:07.661Z,2.22
2019-05-26T18:40:10.141Z,1.70
2019-05-26T18:45:12.273Z,1.10
2019-05-26T18:50:14.303Z,2.98
2019-05-26T18:55:16.494Z,1.90
2019-05-26T19:00:19.627Z,2.03
2019-05-26T19:05:32.877Z,2.05
2019-05-26T19:10:30.696Z,3.00
2019-05-26T19:15:32.793Z,2.27
2019-05-26T19:20:34.998Z,2.03
2019-05-26T19:25:37.068Z,1.60
2019-05-26T19:30:39.159Z,1.30
2019-05-26T19:35:41.238Z,1.60
2019-05-26T19:40:43.439Z,2.63
2019-05-26T19:45:45.568Z,1.82
2019-05-26T19:50:47.645Z,1.87
2019-05-26T19:55:49.683Z,1.60
2019-05-26T20:00:51.875Z,1.70
2019-05-26T20:05:53.915Z,1.53
2019-05-26T20:10:55.961Z,1.20
2019-05-26T20:15:58.167Z,1.73
2019-05-26T20:21:00.313Z,1.50
2019-05-26T20:26:02.475Z,1.67
2019-05-26T20:31:04.509Z,1.80
2019-05-26T20:36:06.637Z,2.00
2019-05-26T20:41:08.776Z,1.90
2019-05-26T20:46:10.945Z,1.80
2019-05-26T20:51:13.361Z,1.73
2019-05-26T20:56:15.552Z,1.60
2019-05-26T21:01:17.994Z,1.97
2019-05-26T21:06:25.716Z,2.00
2019-05-26T21:11:29.347Z,1.80
2019-05-26T21:16:31.598Z,1.67
2019-05-26T21:21:34.202Z,2.00
2019-05-26T21:26:36.442Z,1.83
2019-05-26T21:31:38.668Z,2.10
2019-05-26T21:36:40.888Z,2.80
2019-05-26T21:41:44.839Z,2.10
2019-05-26T21:46:46.861Z,2.20
2019-05-26T21:51:49.002Z,2.00
2019-05-26T21:56:51.344Z,2.10
2019-05-26T22:01:54.651Z,2.27
2019-05-26T22:06:59.263Z,2.00
2019-05-26T22:12:01.288Z,2.13
2019-05-26T22:17:03.409Z,2.40
2019-05-26T22:22:05.451Z,2.53
2019-05-26T22:27:07.518Z,2.70
2019-05-26T22:32:09.664Z,2.50
2019-05-26T22:37:11.783Z,3.10
2019-05-26T22:42:13.847Z,2.40
2019-05-26T22:47:15.961Z,2.60
2019-05-26T22:52:18.109Z,2.50
2019-05-26T22:57:20.266Z,2.50
2019-05-26T23:02:22.362Z,2.73
2019-05-26T23:07:24.592Z,2.67
2019-05-26T23:12:26.734Z,2.43
2019-05-26T23:17:28.813Z,2.80
2019-05-26T23:22:31.070Z,2.70
2019-05-26T23:27:33.124Z,2.90
2019-05-26T23:32:35.290Z,3.13
2019-05-26T23:37:37.353Z,2.80
2019-05-26T23:42:39.401Z,2.90
2019-05-26T23:47:41.540Z,2.83
2019-05-26T23:52:43.619Z,3.07
2019-05-26T23:57:45.819Z,2.67
